createdAt,value
2023-05-04T00:00:05.164Z,42.07
2023-05-04T00:00:14.889Z,42.07
2023-05-04T00:00:24.842Z,42.07
2023-05-04T00:00:34.873Z,42.07
2023-05-04T00:00:44.876Z,42.07
2023-05-04T00:00:54.853Z,42.07
2023-05-04T00:01:04.854Z,41.97
2023-05-04T00:01:24.849Z,42.07
2023-05-04T00:01:44.852Z,41.97
2023-05-04T00:01:54.845Z,41.97
2023-05-04T00:02:04.842Z,41.97
2023-05-04T00:02:14.884Z,41.97
2023-05-04T00:02:35.030Z,41.97
2023-05-04T00:02:44.960Z,41.97
2023-05-04T00:02:54.980Z,41.97
2023-05-04T00:03:04.879Z,41.97
2023-05-04T00:03:14.988Z,41.97
2023-05-04T00:03:24.913Z,41.97
2023-05-04T00:03:44.993Z,41.97
2023-05-04T00:03:54.959Z,41.97
2023-05-04T00:04:14.898Z,41.97
2023-05-04T00:04:24.878Z,41.97
2023-05-04T00:04:34.921Z,41.97
2023-05-04T00:04:55.024Z,41.97
2023-05-04T00:05:04.831Z,41.97
2023-05-04T00:05:14.825Z,41.97
2023-05-04T00:05:24.806Z,41.97
2023-05-04T00:05:35.470Z,41.97
2023-05-04T00:05:44.806Z,41.97
2023-05-04T00:06:04.802Z,41.97
2023-05-04T00:06:14.813Z,41.97
2023-05-04T00:06:24.799Z,41.97
2023-05-04T00:06:43.796Z,41.97
2023-05-04T00:06:54.815Z,41.97
2023-05-04T00:07:14.834Z,41.97
2023-05-04T00:07:31.758Z,41.97
2023-05-04T00:07:36.900Z,41.97
2023-05-04T00:07:46.905Z,41.97
2023-05-04T00:07:56.900Z,41.97
2023-05-04T00:08:06.883Z,41.97
2023-05-04T00:08:16.895Z,41.97
2023-05-04T00:08:36.907Z,41.97
2023-05-04T00:08:46.880Z,41.97
2023-05-04T00:08:56.901Z,41.97
2023-05-04T00:09:16.907Z,41.97
2023-05-04T00:09:26.878Z,41.97
2023-05-04T00:09:36.902Z,41.97
2023-05-04T00:09:56.890Z,41.97
2023-05-04T00:10:07.201Z,41.97
2023-05-04T00:10:16.885Z,41.97
2023-05-04T00:10:26.860Z,41.97
2023-05-04T00:10:36.881Z,41.97
2023-05-04T00:10:46.890Z,41.97
2023-05-04T00:10:56.903Z,41.97
2023-05-04T00:11:16.875Z,41.97
2023-05-04T00:11:36.888Z,41.97
2023-05-04T00:11:46.857Z,41.97
2023-05-04T00:11:56.892Z,41.97
2023-05-04T00:12:06.940Z,41.97
2023-05-04T00:12:16.886Z,41.97
2023-05-04T00:12:26.891Z,41.97
2023-05-04T00:12:46.864Z,41.97
2023-05-04T00:12:56.901Z,41.97
2023-05-04T00:13:06.924Z,41.97
2023-05-04T00:13:16.942Z,41.97
2023-05-04T00:13:26.850Z,41.97
2023-05-04T00:13:36.862Z,41.97
2023-05-04T00:13:56.861Z,41.97
2023-05-04T00:14:06.840Z,41.97
2023-05-04T00:14:16.865Z,41.97
2023-05-04T00:14:26.838Z,41.97
2023-05-04T00:14:36.872Z,41.97
2023-05-04T00:14:46.838Z,41.97
2023-05-04T00:15:06.838Z,41.97
2023-05-04T00:15:16.854Z,41.97
2023-05-04T00:15:26.833Z,41.97
2023-05-04T00:15:36.862Z,41.97
2023-05-04T00:15:46.847Z,41.97
2023-05-04T00:15:56.892Z,41.97
2023-05-04T00:16:16.910Z,41.97
2023-05-04T00:16:35.903Z,41.97
2023-05-04T00:16:46.898Z,41.97
2023-05-04T00:16:56.850Z,41.97
2023-05-04T00:17:06.926Z,41.97
2023-05-04T00:17:25.839Z,41.97
2023-05-04T00:17:36.888Z,41.97
2023-05-04T00:17:46.832Z,41.97
2023-05-04T00:17:56.925Z,41.88
2023-05-04T00:18:06.850Z,41.97
2023-05-04T00:18:16.845Z,41.97
2023-05-04T00:18:26.821Z,41.97
2023-05-04T00:18:56.840Z,41.88
2023-05-04T00:19:06.804Z,41.97
2023-05-04T00:19:16.837Z,41.97
2023-05-04T00:19:26.817Z,41.88
2023-05-04T00:19:36.848Z,41.97
2023-05-04T00:19:46.801Z,41.97
2023-05-04T00:20:06.973Z,41.88
2023-05-04T00:20:16.820Z,41.88
2023-05-04T00:20:26.797Z,41.88
2023-05-04T00:20:36.838Z,41.97
2023-05-04T00:20:46.795Z,41.97
2023-05-04T00:20:56.816Z,41.97
2023-05-04T00:21:25.787Z,41.88
2023-05-04T00:21:36.809Z,41.97
2023-05-04T00:21:46.791Z,41.88
2023-05-04T00:21:56.819Z,41.97
2023-05-04T00:22:06.798Z,41.97
2023-05-04T00:22:16.811Z,41.88
2023-05-04T00:22:26.783Z,41.88
2023-05-04T00:22:36.816Z,41.88
2023-05-04T00:22:56.795Z,41.97
2023-05-04T00:23:06.779Z,41.88
2023-05-04T00:23:16.812Z,41.88
2023-05-04T00:23:26.775Z,41.88
2023-05-04T00:23:36.796Z,41.88
2023-05-04T00:24:05.769Z,41.88
2023-05-04T00:24:16.801Z,41.88
2023-05-04T00:24:26.844Z,41.88
2023-05-04T00:24:36.803Z,41.88
2023-05-04T00:24:46.776Z,41.88
2023-05-04T00:24:56.812Z,41.88
2023-05-04T00:25:06.802Z,41.88
2023-05-04T00:25:26.777Z,41.88
2023-05-04T00:25:36.785Z,41.88
2023-05-04T00:25:46.759Z,41.88
2023-05-04T00:25:56.775Z,41.88
2023-05-04T00:26:16.774Z,41.88
2023-05-04T00:26:36.779Z,41.88
2023-05-04T00:26:46.756Z,41.88
2023-05-04T00:26:56.787Z,41.88
2023-05-04T00:27:06.761Z,41.88
2023-05-04T00:27:16.784Z,41.88
2023-05-04T00:27:26.754Z,41.88
2023-05-04T00:27:36.785Z,41.88
2023-05-04T00:27:46.764Z,41.88
2023-05-04T00:28:05.744Z,41.88
2023-05-04T00:28:16.758Z,41.88
2023-05-04T00:28:26.748Z,41.88
2023-05-04T00:28:46.745Z,41.88
2023-05-04T00:28:56.757Z,41.88
2023-05-04T00:29:06.753Z,41.88
2023-05-04T00:29:16.769Z,41.88
2023-05-04T00:29:36.766Z,41.88
2023-05-04T00:29:46.734Z,41.88
2023-05-04T00:29:56.750Z,41.88
2023-05-04T00:30:06.841Z,41.88
2023-05-04T00:30:16.771Z,41.88
2023-05-04T00:30:26.731Z,41.88
2023-05-04T00:30:45.732Z,41.88
2023-05-04T00:30:56.748Z,41.88
2023-05-04T00:31:15.768Z,41.88
2023-05-04T00:31:26.785Z,41.88
2023-05-04T00:31:36.853Z,41.88
2023-05-04T00:31:46.757Z,41.88
2023-05-04T00:32:05.821Z,41.88
2023-05-04T00:32:16.744Z,41.88
2023-05-04T00:32:26.771Z,41.88
2023-05-04T00:32:36.788Z,41.88
2023-05-04T00:32:46.752Z,41.88
2023-05-04T00:32:56.815Z,41.88
2023-05-04T00:33:06.757Z,41.88
2023-05-04T00:33:16.758Z,41.88
2023-05-04T00:33:35.724Z,41.88
2023-05-04T00:33:46.709Z,41.88
2023-05-04T00:33:56.725Z,41.88
2023-05-04T00:34:06.710Z,41.88
2023-05-04T00:34:16.725Z,41.88
2023-05-04T00:34:26.701Z,41.88
2023-05-04T00:34:36.741Z,41.88
2023-05-04T00:34:56.750Z,41.88
2023-05-04T00:35:06.700Z,41.88
2023-05-04T00:35:16.732Z,41.88
2023-05-04T00:35:26.698Z,41.88
2023-05-04T00:35:36.730Z,41.88
2023-05-04T00:35:46.698Z,41.88
2023-05-04T00:36:06.705Z,41.88
2023-05-04T00:36:16.727Z,41.88
2023-05-04T00:36:26.691Z,41.88
2023-05-04T00:36:36.713Z,41.88
2023-05-04T00:36:46.691Z,41.88
2023-05-04T00:36:56.722Z,41.88
2023-05-04T00:37:16.711Z,41.88
2023-05-04T00:37:26.695Z,41.88
2023-05-04T00:37:36.723Z,41.88
2023-05-04T00:37:46.705Z,41.88
2023-05-04T00:37:56.684Z,41.88
2023-05-04T00:38:06.717Z,41.88
2023-05-04T00:38:26.702Z,41.88
2023-05-04T00:38:46.730Z,41.88
2023-05-04T00:38:56.679Z,41.88
2023-05-04T00:39:06.691Z,41.88
2023-05-04T00:39:16.683Z,41.88
2023-05-04T00:39:26.706Z,41.88
2023-05-04T00:39:36.674Z,41.88
2023-05-04T00:39:56.667Z,41.88
2023-05-04T00:40:06.948Z,41.88
2023-05-04T00:40:16.674Z,41.88
2023-05-04T00:40:26.705Z,41.88
2023-05-04T00:40:36.682Z,41.88
2023-05-04T00:40:46.692Z,41.88
2023-05-04T00:41:06.694Z,41.88
2023-05-04T00:41:16.657Z,41.88
2023-05-04T00:41:26.698Z,41.88
2023-05-04T00:41:36.659Z,41.88
2023-05-04T00:41:46.691Z,41.88
2023-05-04T00:41:56.670Z,41.88
2023-05-04T00:42:06.732Z,41.88
2023-05-04T00:42:26.688Z,41.88
2023-05-04T00:42:36.669Z,41.88
2023-05-04T00:42:46.701Z,41.88
2023-05-04T00:42:56.644Z,41.88
2023-05-04T00:43:06.673Z,41.77
2023-05-04T00:43:16.651Z,41.88
2023-05-04T00:43:36.644Z,41.77
2023-05-04T00:43:46.686Z,41.88
2023-05-04T00:43:56.641Z,41.88
2023-05-04T00:44:06.687Z,41.88
2023-05-04T00:44:16.641Z,41.88
2023-05-04T00:44:26.666Z,41.88
2023-05-04T00:44:46.670Z,41.88
2023-05-04T00:44:56.637Z,41.88
2023-05-04T00:45:06.650Z,41.88
2023-05-04T00:45:16.646Z,41.88
2023-05-04T00:45:26.679Z,41.77
2023-05-04T00:45:36.635Z,41.88
2023-05-04T00:45:55.626Z,41.88
2023-05-04T00:46:06.667Z,41.88
2023-05-04T00:46:26.716Z,41.88
2023-05-04T00:46:36.642Z,41.88
2023-05-04T00:46:46.710Z,41.88
2023-05-04T00:46:56.649Z,41.88
2023-05-04T00:47:06.692Z,41.88
2023-05-04T00:47:16.725Z,41.88
2023-05-04T00:47:36.636Z,41.88
2023-05-04T00:47:46.701Z,41.88
2023-05-04T00:47:56.646Z,41.88
2023-05-04T00:48:06.674Z,41.77
2023-05-04T00:48:16.618Z,41.77
2023-05-04T00:48:46.641Z,41.88
2023-05-04T00:48:56.615Z,41.88
2023-05-04T00:49:06.655Z,41.88
2023-05-04T00:49:16.618Z,41.88
2023-05-04T00:49:26.616Z,41.88
2023-05-04T00:49:36.606Z,41.88
2023-05-04T00:49:56.608Z,41.88
2023-05-04T00:50:06.938Z,41.88
2023-05-04T00:50:16.606Z,41.88
2023-05-04T00:50:26.636Z,41.88
2023-05-04T00:50:36.605Z,41.88
2023-05-04T00:50:46.631Z,41.88
2023-05-04T00:51:06.616Z,41.88
2023-05-04T00:51:16.618Z,41.88
2023-05-04T00:51:26.617Z,41.77
2023-05-04T00:51:36.590Z,41.88
2023-05-04T00:51:46.624Z,41.88
2023-05-04T00:51:56.602Z,41.77
2023-05-04T00:52:06.625Z,41.88
2023-05-04T00:52:26.622Z,41.88
2023-05-04T00:52:36.584Z,41.88
2023-05-04T00:52:46.621Z,41.77
2023-05-04T00:52:56.625Z,41.88
2023-05-04T00:53:06.612Z,41.88
2023-05-04T00:53:16.597Z,41.77
2023-05-04T00:53:36.587Z,41.77
2023-05-04T00:53:46.605Z,41.88
2023-05-04T00:53:56.584Z,41.77
2023-05-04T00:54:06.591Z,41.88
2023-05-04T00:54:16.596Z,41.88
2023-05-04T00:54:26.629Z,41.77
2023-05-04T00:54:36.596Z,41.88
2023-05-04T00:54:56.573Z,41.77
2023-05-04T00:55:06.619Z,41.77
2023-05-04T00:55:16.566Z,41.77
2023-05-04T00:55:26.619Z,41.88
2023-05-04T00:55:36.565Z,41.77
2023-05-04T00:55:46.596Z,41.88
2023-05-04T00:56:06.581Z,41.88
2023-05-04T00:56:16.580Z,41.77
2023-05-04T00:56:26.603Z,41.77
2023-05-04T00:56:36.559Z,41.77
2023-05-04T00:56:46.591Z,41.77
2023-05-04T00:56:56.557Z,41.88
2023-05-04T00:57:16.561Z,41.77
2023-05-04T00:57:26.600Z,41.77
2023-05-04T00:57:36.551Z,41.77
2023-05-04T00:57:46.598Z,41.77
2023-05-04T00:57:56.544Z,41.77
2023-05-04T00:58:06.563Z,41.88
2023-05-04T00:58:26.583Z,41.88
2023-05-04T00:58:45.574Z,41.77
2023-05-04T00:58:56.569Z,41.77
2023-05-04T00:59:06.581Z,41.77
2023-05-04T00:59:16.553Z,41.88
2023-05-04T00:59:36.545Z,41.77
2023-05-04T00:59:46.554Z,41.77
2023-05-04T00:59:56.536Z,41.77
2023-05-04T01:00:06.809Z,41.77
2023-05-04T01:00:16.533Z,41.88
2023-05-04T01:00:26.551Z,41.88
2023-05-04T01:00:46.580Z,41.77
2023-05-04T01:00:56.596Z,41.77
2023-05-04T01:01:06.604Z,41.77
2023-05-04T01:01:25.568Z,41.77
2023-05-04T01:01:36.600Z,41.77
2023-05-04T01:01:56.529Z,41.77
2023-05-04T01:02:06.549Z,41.77
2023-05-04T01:02:16.519Z,41.77
2023-05-04T01:02:26.577Z,41.77
2023-05-04T01:02:36.556Z,41.77
2023-05-04T01:02:46.568Z,41.77
2023-05-04T01:03:06.694Z,41.77
2023-05-04T01:03:16.569Z,41.77
2023-05-04T01:03:36.545Z,41.77
2023-05-04T01:03:46.561Z,41.77
2023-05-04T01:03:56.531Z,41.77
2023-05-04T01:04:06.667Z,41.77
2023-05-04T01:04:25.534Z,41.77
2023-05-04T01:04:36.527Z,41.77
2023-05-04T01:04:46.523Z,41.77
2023-05-04T01:04:56.504Z,41.77
2023-05-04T01:05:06.541Z,41.77
2023-05-04T01:05:16.518Z,41.77
2023-05-04T01:05:26.551Z,41.77
2023-05-04T01:05:45.508Z,41.77
2023-05-04T01:05:56.498Z,41.77
2023-05-04T01:06:06.510Z,41.77
2023-05-04T01:06:16.512Z,41.77
2023-05-04T01:06:36.497Z,41.77
2023-05-04T01:06:46.542Z,41.77
2023-05-04T01:07:06.518Z,41.77
2023-05-04T01:07:16.489Z,41.77
2023-05-04T01:07:26.513Z,41.77
2023-05-04T01:07:36.491Z,41.77
2023-05-04T01:07:46.506Z,41.77
2023-05-04T01:07:56.495Z,41.77
2023-05-04T01:08:15.481Z,41.77
2023-05-04T01:08:26.503Z,41.77
2023-05-04T01:08:36.480Z,41.77
2023-05-04T01:08:46.509Z,41.77
2023-05-04T01:09:06.504Z,41.77
2023-05-04T01:09:16.468Z,41.77
2023-05-04T01:09:35.472Z,41.77
2023-05-04T01:09:46.514Z,41.77
2023-05-04T01:09:56.486Z,41.77
2023-05-04T01:10:06.683Z,41.77
2023-05-04T01:10:16.471Z,41.77
2023-05-04T01:10:26.484Z,41.77
2023-05-04T01:10:36.469Z,41.77
2023-05-04T01:10:56.480Z,41.77
2023-05-04T01:11:06.496Z,41.77
2023-05-04T01:11:16.461Z,41.77
2023-05-04T01:11:26.496Z,41.77
2023-05-04T01:11:46.495Z,41.77
2023-05-04T01:12:06.489Z,41.77
2023-05-04T01:12:16.462Z,41.77
2023-05-04T01:12:26.484Z,41.77
2023-05-04T01:12:36.468Z,41.77
2023-05-04T01:12:46.490Z,41.77
2023-05-04T01:12:56.464Z,41.77
2023-05-04T01:13:16.561Z,41.77
2023-05-04T01:13:26.491Z,41.77
2023-05-04T01:13:36.439Z,41.77
2023-05-04T01:13:46.481Z,41.77
2023-05-04T01:14:06.475Z,41.77
2023-05-04T01:14:26.465Z,41.77
2023-05-04T01:14:36.442Z,41.67
2023-05-04T01:14:46.458Z,41.77
2023-05-04T01:14:56.449Z,41.77
2023-05-04T01:15:06.490Z,41.77
2023-05-04T01:15:16.443Z,41.77
2023-05-04T01:15:36.447Z,41.77
2023-05-04T01:15:46.459Z,41.77
2023-05-04T01:15:56.437Z,41.77
2023-05-04T01:16:06.449Z,41.77
2023-05-04T01:16:26.504Z,41.77
2023-05-04T01:16:46.523Z,41.77
2023-05-04T01:16:56.607Z,41.77
2023-05-04T01:17:06.524Z,41.77
2023-05-04T01:17:16.422Z,41.77
2023-05-04T01:17:26.539Z,41.77
2023-05-04T01:17:36.511Z,41.77
2023-05-04T01:17:56.428Z,41.77
2023-05-04T01:18:06.544Z,41.77
2023-05-04T01:18:16.497Z,41.77
2023-05-04T01:18:26.457Z,41.77
2023-05-04T01:18:36.682Z,41.77
2023-05-04T01:19:05.460Z,41.77
2023-05-04T01:19:16.413Z,41.77
2023-05-04T01:19:26.427Z,41.77
2023-05-04T01:19:36.404Z,41.77
2023-05-04T01:19:46.419Z,41.77
2023-05-04T01:19:56.405Z,41.77
2023-05-04T01:20:06.739Z,41.77
2023-05-04T01:20:26.416Z,41.77
2023-05-04T01:20:36.428Z,41.77
2023-05-04T01:20:46.412Z,41.77
2023-05-04T01:20:56.416Z,41.77
2023-05-04T01:21:06.397Z,41.77
2023-05-04T01:21:35.426Z,41.77
2023-05-04T01:21:46.408Z,41.77
2023-05-04T01:21:56.421Z,41.67
2023-05-04T01:22:06.411Z,41.67
2023-05-04T01:22:16.428Z,41.67
2023-05-04T01:22:26.389Z,41.77
2023-05-04T01:22:36.425Z,41.77
2023-05-04T01:22:56.416Z,41.77
2023-05-04T01:23:06.404Z,41.67
2023-05-04T01:23:16.417Z,41.77
2023-05-04T01:23:26.388Z,41.77
2023-05-04T01:23:46.405Z,41.77
2023-05-04T01:24:06.376Z,41.67
2023-05-04T01:24:16.393Z,41.67
2023-05-04T01:24:26.375Z,41.67
2023-05-04T01:24:36.392Z,41.67
2023-05-04T01:24:46.367Z,41.67
2023-05-04T01:24:56.413Z,41.67
2023-05-04T01:25:16.392Z,41.67
2023-05-04T01:25:26.371Z,41.67
2023-05-04T01:25:36.399Z,41.67
2023-05-04T01:25:46.375Z,41.67
2023-05-04T01:25:56.381Z,41.67
2023-05-04T01:26:06.373Z,41.67
2023-05-04T01:26:36.371Z,41.67
2023-05-04T01:26:46.370Z,41.67
2023-05-04T01:26:56.376Z,41.77
2023-05-04T01:27:06.363Z,41.77
2023-05-04T01:27:16.371Z,41.77
2023-05-04T01:27:26.519Z,41.77
2023-05-04T01:27:36.460Z,41.77
2023-05-04T01:27:56.391Z,41.67
2023-05-04T01:28:06.352Z,41.67
2023-05-04T01:28:16.364Z,41.77
2023-05-04T01:28:26.347Z,41.67
2023-05-04T01:28:36.375Z,41.67
2023-05-04T01:28:46.342Z,41.67
2023-05-04T01:29:06.358Z,41.67
2023-05-04T01:29:16.376Z,41.77
2023-05-04T01:29:35.359Z,41.67
2023-05-04T01:29:46.342Z,41.67
2023-05-04T01:29:56.351Z,41.67
2023-05-04T01:30:06.560Z,41.67
2023-05-04T01:30:16.374Z,41.67
2023-05-04T01:30:26.333Z,41.67
2023-05-04T01:30:36.366Z,41.67
2023-05-04T01:30:56.376Z,41.67
2023-05-04T01:31:06.418Z,41.67
2023-05-04T01:31:16.407Z,41.67
2023-05-04T01:31:36.362Z,41.67
2023-05-04T01:31:46.330Z,41.67
2023-05-04T01:32:06.324Z,41.67
2023-05-04T01:32:16.346Z,41.67
2023-05-04T01:32:26.349Z,41.67
2023-05-04T01:32:36.496Z,41.67
2023-05-04T01:32:46.365Z,41.67
2023-05-04T01:32:56.369Z,41.67
2023-05-04T01:33:16.349Z,41.67
2023-05-04T01:33:26.334Z,41.67
2023-05-04T01:33:36.344Z,41.67
2023-05-04T01:33:46.317Z,41.67
2023-05-04T01:33:56.348Z,41.67
2023-05-04T01:34:25.313Z,41.67
2023-05-04T01:34:36.344Z,41.67
2023-05-04T01:34:46.303Z,41.67
2023-05-04T01:34:56.349Z,41.67
2023-05-04T01:35:06.311Z,41.67
2023-05-04T01:35:16.353Z,41.67
2023-05-04T01:35:26.304Z,41.67
2023-05-04T01:35:46.307Z,41.67
2023-05-04T01:35:56.337Z,41.67
2023-05-04T01:36:06.297Z,41.67
2023-05-04T01:36:16.308Z,41.67
2023-05-04T01:36:36.333Z,41.67
2023-05-04T01:36:55.303Z,41.67
2023-05-04T01:37:06.287Z,41.67
2023-05-04T01:37:16.326Z,41.67
2023-05-04T01:37:26.280Z,41.67
2023-05-04T01:37:36.318Z,41.67
2023-05-04T01:37:46.283Z,41.67
2023-05-04T01:37:56.332Z,41.67
2023-05-04T01:38:16.296Z,41.67
2023-05-04T01:38:26.298Z,41.67
2023-05-04T01:38:36.310Z,41.67
2023-05-04T01:38:46.282Z,41.67
2023-05-04T01:39:06.283Z,41.67
2023-05-04T01:39:16.308Z,41.67
2023-05-04T01:39:36.298Z,41.67
2023-05-04T01:39:46.274Z,41.67
2023-05-04T01:39:56.282Z,41.67
2023-05-04T01:40:06.387Z,41.67
2023-05-04T01:40:16.304Z,41.67
2023-05-04T01:40:26.266Z,41.67
2023-05-04T01:40:45.265Z,41.67
2023-05-04T01:40:56.274Z,41.69
2023-05-04T01:41:06.263Z,41.67
2023-05-04T01:41:26.267Z,41.67
2023-05-04T01:41:36.272Z,41.67
2023-05-04T01:41:46.250Z,41.67
2023-05-04T01:41:56.285Z,41.67
2023-05-04T01:42:16.266Z,41.67
2023-05-04T01:42:26.252Z,41.58
2023-05-04T01:42:36.279Z,41.67
2023-05-04T01:42:46.246Z,41.67
2023-05-04T01:42:56.291Z,41.67
2023-05-04T01:43:06.245Z,41.67
2023-05-04T01:43:26.244Z,41.58
2023-05-04T01:43:36.400Z,41.58
2023-05-04T01:43:56.250Z,41.58
2023-05-04T01:44:06.244Z,41.67
2023-05-04T01:44:16.274Z,41.58
2023-05-04T01:44:35.276Z,41.67
2023-05-04T01:44:46.242Z,41.67
2023-05-04T01:44:56.248Z,41.67
2023-05-04T01:45:06.245Z,41.69
2023-05-04T01:45:16.264Z,41.67
2023-05-04T01:45:26.238Z,41.67
2023-05-04T01:45:36.263Z,41.67
2023-05-04T01:45:55.307Z,41.67
2023-05-04T01:46:06.250Z,41.67
2023-05-04T01:46:16.332Z,41.67
2023-05-04T01:46:36.275Z,41.58
2023-05-04T01:46:46.261Z,41.67
2023-05-04T01:46:56.256Z,41.67
2023-05-04T01:47:16.230Z,41.67
2023-05-04T01:47:26.252Z,41.67
2023-05-04T01:47:36.255Z,41.58
2023-05-04T01:47:46.243Z,41.58
2023-05-04T01:47:56.285Z,41.69
2023-05-04T01:48:06.250Z,41.67
2023-05-04T01:48:25.631Z,41.67
2023-05-04T01:48:36.240Z,41.67
2023-05-04T01:48:56.229Z,41.69
2023-05-04T01:49:06.221Z,41.60
2023-05-04T01:49:16.238Z,41.67
2023-05-04T01:49:26.206Z,41.60
2023-05-04T01:49:36.245Z,41.67
2023-05-04T01:49:46.207Z,41.67
2023-05-04T01:50:06.435Z,41.67
2023-05-04T01:50:16.229Z,41.67
2023-05-04T01:50:26.190Z,41.67
2023-05-04T01:50:36.228Z,41.67
2023-05-04T01:50:46.191Z,41.69
2023-05-04T01:50:56.231Z,41.60
2023-05-04T01:51:16.233Z,41.60
2023-05-04T01:51:26.196Z,41.58
2023-05-04T01:51:36.233Z,41.69
2023-05-04T01:51:46.184Z,41.60
2023-05-04T01:51:56.203Z,41.69
2023-05-04T01:52:06.209Z,41.58
2023-05-04T01:52:26.188Z,41.69
2023-05-04T01:52:36.204Z,41.67
2023-05-04T01:52:46.185Z,41.60
2023-05-04T01:52:56.200Z,41.60
2023-05-04T01:53:06.177Z,41.69
2023-05-04T01:53:16.231Z,41.58
2023-05-04T01:53:46.173Z,41.69
2023-05-04T01:53:56.209Z,41.58
2023-05-04T01:54:06.186Z,41.58
2023-05-04T01:54:16.192Z,41.67
2023-05-04T01:54:26.186Z,41.58
2023-05-04T01:54:36.234Z,41.60
2023-05-04T01:54:56.180Z,41.60
2023-05-04T01:55:06.169Z,41.58
2023-05-04T01:55:16.198Z,41.58
2023-05-04T01:55:26.170Z,41.60
2023-05-04T01:55:36.194Z,41.60
2023-05-04T01:55:46.165Z,41.58
2023-05-04T01:55:56.191Z,41.58
2023-05-04T01:56:16.188Z,41.60
2023-05-04T01:56:26.169Z,41.60
2023-05-04T01:56:36.173Z,41.60
2023-05-04T01:56:46.155Z,41.60
2023-05-04T01:56:56.166Z,41.60
2023-05-04T01:57:06.155Z,41.60
2023-05-04T01:57:25.155Z,41.60
2023-05-04T01:57:36.188Z,41.60
2023-05-04T01:57:46.144Z,41.58
2023-05-04T01:57:56.188Z,41.58
2023-05-04T01:58:06.140Z,41.58
2023-05-04T01:58:16.176Z,41.58
2023-05-04T01:58:26.147Z,41.58
2023-05-04T01:58:46.136Z,41.60
2023-05-04T01:58:56.171Z,41.60
2023-05-04T01:59:06.135Z,41.58
2023-05-04T01:59:16.156Z,41.58
2023-05-04T01:59:26.142Z,41.58
2023-05-04T01:59:36.150Z,41.60
2023-05-04T01:59:46.146Z,41.60
2023-05-04T02:00:06.386Z,41.58
2023-05-04T02:00:16.163Z,41.69
2023-05-04T02:00:26.143Z,41.58
2023-05-04T02:00:36.155Z,41.60
2023-05-04T02:00:46.131Z,41.60
2023-05-04T02:00:56.140Z,41.60
2023-05-04T02:01:16.186Z,41.60
2023-05-04T02:01:26.172Z,41.58
2023-05-04T02:01:36.225Z,41.60
2023-05-04T02:01:46.159Z,41.58
2023-05-04T02:01:56.230Z,41.60
2023-05-04T02:02:06.191Z,41.60
2023-05-04T02:02:26.126Z,41.58
2023-05-04T02:02:36.250Z,41.60
2023-05-04T02:02:46.200Z,41.60
2023-05-04T02:02:56.202Z,41.60
2023-05-04T02:03:06.194Z,41.60
2023-05-04T02:03:16.221Z,41.60
2023-05-04T02:03:26.211Z,41.60
2023-05-04T02:03:46.209Z,41.60
2023-05-04T02:03:56.280Z,41.60
2023-05-04T02:04:06.268Z,41.60
2023-05-04T02:04:16.102Z,41.58
2023-05-04T02:04:26.139Z,41.60
2023-05-04T02:04:36.102Z,41.60
2023-05-04T02:04:46.136Z,41.60
2023-05-04T02:05:06.121Z,41.58
2023-05-04T02:05:16.095Z,41.58
2023-05-04T02:05:26.126Z,41.58
2023-05-04T02:05:36.086Z,41.60
2023-05-04T02:05:46.119Z,41.60
2023-05-04T02:05:56.091Z,41.60
2023-05-04T02:06:06.127Z,41.58
2023-05-04T02:06:26.109Z,41.60
2023-05-04T02:06:36.094Z,41.60
2023-05-04T02:06:46.117Z,41.60
2023-05-04T02:06:56.087Z,41.60
2023-05-04T02:07:06.120Z,41.60
2023-05-04T02:07:16.082Z,41.60
2023-05-04T02:07:26.146Z,41.60
2023-05-04T02:07:46.089Z,41.60
2023-05-04T02:07:56.079Z,41.60
2023-05-04T02:08:06.101Z,41.60
2023-05-04T02:08:16.073Z,41.60
2023-05-04T02:08:26.088Z,41.60
2023-05-04T02:08:36.097Z,41.58
2023-05-04T02:08:56.072Z,41.60
2023-05-04T02:09:06.098Z,41.60
2023-05-04T02:09:16.069Z,41.58
2023-05-04T02:09:26.085Z,41.60
2023-05-04T02:09:36.073Z,41.60
2023-05-04T02:09:46.109Z,41.60
2023-05-04T02:10:05.406Z,41.58
2023-05-04T02:10:16.065Z,41.60
2023-05-04T02:10:26.094Z,41.60
2023-05-04T02:10:36.085Z,41.60
2023-05-04T02:10:46.073Z,41.60
2023-05-04T02:10:56.058Z,41.60
2023-05-04T02:11:06.099Z,41.60
2023-05-04T02:11:25.085Z,41.60
2023-05-04T02:11:36.056Z,41.60
2023-05-04T02:11:46.082Z,41.58
2023-05-04T02:11:56.058Z,41.60
2023-05-04T02:12:06.077Z,41.60
2023-05-04T02:12:16.045Z,41.60
2023-05-04T02:12:26.095Z,41.60
2023-05-04T02:12:46.099Z,41.60
2023-05-04T02:12:56.078Z,41.60
2023-05-04T02:13:06.164Z,41.60
2023-05-04T02:13:16.154Z,41.60
2023-05-04T02:13:26.078Z,41.60
2023-05-04T02:13:36.037Z,41.60
2023-05-04T02:13:56.040Z,41.60
2023-05-04T02:14:06.056Z,41.60
2023-05-04T02:14:16.051Z,41.60
2023-05-04T02:14:26.087Z,41.60
2023-05-04T02:14:36.040Z,41.60
2023-05-04T02:14:46.074Z,41.60
2023-05-04T02:15:06.065Z,41.60
2023-05-04T02:15:16.035Z,41.60
2023-05-04T02:15:26.041Z,41.60
2023-05-04T02:15:36.024Z,41.60
2023-05-04T02:15:46.114Z,41.60
2023-05-04T02:15:56.045Z,41.60
2023-05-04T02:16:26.161Z,41.60
2023-05-04T02:16:36.044Z,41.60
2023-05-04T02:16:46.050Z,41.60
2023-05-04T02:16:56.030Z,41.60
2023-05-04T02:17:06.034Z,41.60
2023-05-04T02:17:16.014Z,41.60
2023-05-04T02:17:35.043Z,41.60
2023-05-04T02:17:46.055Z,41.60
2023-05-04T02:17:56.050Z,41.60
2023-05-04T02:18:06.052Z,41.60
2023-05-04T02:18:16.014Z,41.60
2023-05-04T02:18:26.041Z,41.60
2023-05-04T02:18:36.003Z,41.60
2023-05-04T02:18:54.997Z,41.60
2023-05-04T02:19:06.042Z,41.60
2023-05-04T02:19:16.006Z,41.60
2023-05-04T02:19:26.029Z,41.60
2023-05-04T02:19:35.997Z,41.60
2023-05-04T02:19:46.055Z,41.60
2023-05-04T02:19:56.002Z,41.60
2023-05-04T02:20:16.000Z,41.60
2023-05-04T02:20:26.043Z,41.60
2023-05-04T02:20:35.994Z,41.60
2023-05-04T02:20:46.021Z,41.60
2023-05-04T02:20:55.990Z,41.60
2023-05-04T02:21:06.030Z,41.60
2023-05-04T02:21:26.021Z,41.60
2023-05-04T02:21:35.994Z,41.60
2023-05-04T02:21:46.083Z,41.60
2023-05-04T02:21:56.010Z,41.50
2023-05-04T02:22:06.018Z,41.50
2023-05-04T02:22:15.984Z,41.50
2023-05-04T02:22:36.015Z,41.50
2023-05-04T02:22:45.991Z,41.50
2023-05-04T02:22:55.975Z,41.50
2023-05-04T02:23:05.995Z,41.60
2023-05-04T02:23:15.977Z,41.60
2023-05-04T02:23:25.996Z,41.60
2023-05-04T02:23:55.981Z,41.50
2023-05-04T02:24:06.003Z,41.60
2023-05-04T02:24:15.974Z,41.60
2023-05-04T02:24:25.981Z,41.50
2023-05-04T02:24:35.968Z,41.50
2023-05-04T02:24:45.987Z,41.50
2023-05-04T02:25:04.971Z,41.50
2023-05-04T02:25:15.961Z,41.50
2023-05-04T02:25:25.988Z,41.60
2023-05-04T02:25:35.962Z,41.60
2023-05-04T02:25:45.991Z,41.60
2023-05-04T02:25:55.991Z,41.50
2023-05-04T02:26:05.987Z,41.50
2023-05-04T02:26:25.976Z,41.50
2023-05-04T02:26:35.953Z,41.50
2023-05-04T02:26:45.985Z,41.50
2023-05-04T02:26:55.947Z,41.50
2023-05-04T02:27:05.991Z,41.50
2023-05-04T02:27:15.958Z,41.50
2023-05-04T02:27:25.979Z,41.50
2023-05-04T02:27:35.956Z,41.50
2023-05-04T02:27:55.958Z,41.50
2023-05-04T02:28:05.959Z,41.50
2023-05-04T02:28:15.946Z,41.50
2023-05-04T02:28:25.974Z,41.50
2023-05-04T02:28:35.947Z,41.50
2023-05-04T02:29:06.036Z,41.50
2023-05-04T02:29:15.932Z,41.50
2023-05-04T02:29:25.972Z,41.50
2023-05-04T02:29:35.933Z,41.50
2023-05-04T02:29:45.960Z,41.50
2023-05-04T02:29:55.930Z,41.50
2023-05-04T02:30:06.272Z,41.50
2023-05-04T02:30:25.969Z,41.50
2023-05-04T02:30:35.927Z,41.50
2023-05-04T02:30:45.961Z,41.50
2023-05-04T02:30:55.921Z,41.50
2023-05-04T02:31:05.940Z,41.50
2023-05-04T02:31:35.948Z,41.50
2023-05-04T02:31:45.994Z,41.50
2023-05-04T02:31:55.986Z,41.50
2023-05-04T02:32:06.074Z,41.50
2023-05-04T02:32:15.966Z,41.50
2023-05-04T02:32:25.965Z,41.50
2023-05-04T02:32:44.964Z,41.50
2023-05-04T02:32:55.951Z,41.50
2023-05-04T02:33:05.955Z,41.50
2023-05-04T02:33:15.911Z,41.50
2023-05-04T02:33:25.930Z,41.50
2023-05-04T02:33:35.901Z,41.50
2023-05-04T02:33:45.916Z,41.50
2023-05-04T02:34:04.937Z,41.50
2023-05-04T02:34:15.944Z,41.50
2023-05-04T02:34:25.939Z,41.50
2023-05-04T02:34:35.896Z,41.50
2023-05-04T02:34:45.910Z,41.50
2023-05-04T02:34:55.904Z,41.50
2023-05-04T02:35:05.927Z,41.50
2023-05-04T02:35:25.913Z,41.50
2023-05-04T02:35:35.893Z,41.50
2023-05-04T02:35:45.908Z,41.50
2023-05-04T02:35:55.890Z,41.50
2023-05-04T02:36:05.918Z,41.50